createdAt,value
2022-08-17T00:03:28.884Z,996.94
2022-08-17T00:08:28.838Z,996.96
2022-08-17T00:13:28.815Z,996.83
2022-08-17T00:19:02.140Z,996.88
2022-08-17T00:23:29.641Z,996.93
2022-08-17T00:28:28.566Z,996.95
2022-08-17T00:33:28.771Z,997.04
2022-08-17T00:38:28.440Z,997.02
2022-08-17T00:43:28.389Z,996.97
2022-08-17T00:48:30.048Z,997.00
2022-08-17T00:53:28.257Z,996.98
2022-08-17T00:58:35.986Z,996.98
2022-08-17T01:03:29.100Z,996.99
2022-08-17T01:08:28.291Z,997.08
2022-08-17T01:13:28.011Z,997.06
2022-08-17T01:18:27.923Z,997.12
2022-08-17T01:23:27.862Z,997.09
2022-08-17T01:28:55.141Z,997.22
2022-08-17T01:33:28.714Z,997.12
2022-08-17T01:38:27.666Z,997.11
2022-08-17T01:43:27.585Z,997.10
2022-08-17T01:48:27.520Z,997.11
2022-08-17T01:53:27.477Z,997.20
2022-08-17T01:58:27.388Z,997.19
2022-08-17T02:03:27.326Z,997.19
2022-08-17T02:08:38.653Z,997.18
2022-08-17T02:13:28.438Z,997.36
2022-08-17T02:18:27.140Z,997.28
2022-08-17T02:23:27.060Z,997.14
2022-08-17T02:28:27.230Z,997.17
2022-08-17T02:33:42.103Z,997.14
2022-08-17T02:38:27.862Z,997.14
2022-08-17T02:43:26.793Z,997.07
2022-08-17T02:48:31.584Z,997.10
2022-08-17T02:53:27.684Z,997.17
2022-08-17T02:58:34.549Z,997.23
2022-08-17T03:03:27.536Z,997.19
2022-08-17T03:08:26.484Z,997.15
2022-08-17T03:13:26.405Z,997.23
2022-08-17T03:18:26.528Z,997.14
2022-08-17T03:23:26.303Z,997.10
2022-08-17T03:28:26.214Z,997.04
2022-08-17T03:33:26.157Z,997.00
2022-08-17T03:38:26.108Z,997.12
2022-08-17T03:43:26.008Z,997.10
2022-08-17T03:48:25.950Z,997.06
2022-08-17T03:53:25.888Z,997.02
2022-08-17T03:58:25.819Z,997.04
2022-08-17T04:03:25.743Z,997.06
2022-08-17T04:08:25.692Z,997.10
2022-08-17T04:13:25.755Z,997.07
2022-08-17T04:18:25.792Z,997.15
2022-08-17T04:23:25.493Z,997.19
2022-08-17T04:28:25.403Z,997.16
2022-08-17T04:33:25.353Z,997.22
2022-08-17T04:38:25.310Z,997.30
2022-08-17T04:43:25.214Z,997.42
2022-08-17T04:48:33.388Z,997.34
2022-08-17T04:53:26.085Z,997.49
2022-08-17T04:58:25.015Z,997.34
2022-08-17T05:03:24.947Z,997.39
2022-08-17T05:08:24.913Z,997.37
2022-08-17T05:13:24.850Z,997.69
2022-08-17T05:18:24.831Z,997.62
2022-08-17T05:23:24.700Z,997.72
2022-08-17T05:28:28.007Z,997.74
2022-08-17T05:33:25.562Z,997.72
2022-08-17T05:38:24.504Z,997.66
2022-08-17T05:43:24.779Z,997.79
2022-08-17T05:48:39.101Z,997.78
2022-08-17T05:53:25.369Z,997.77
2022-08-17T05:58:24.323Z,997.78
2022-08-17T06:03:24.229Z,997.81
2022-08-17T06:08:24.161Z,997.59
2022-08-17T06:13:24.105Z,997.81
2022-08-17T06:18:24.041Z,997.93
2022-08-17T06:23:24.064Z,997.94
2022-08-17T06:28:23.906Z,997.89
2022-08-17T06:33:23.907Z,997.93
2022-08-17T06:38:38.074Z,997.74
2022-08-17T06:43:24.744Z,997.85
2022-08-17T06:48:23.713Z,997.95
2022-08-17T06:53:23.621Z,997.82
2022-08-17T06:58:23.563Z,997.76
2022-08-17T07:03:24.513Z,997.77
2022-08-17T07:08:29.183Z,997.78
2022-08-17T07:13:24.376Z,997.77
2022-08-17T07:18:23.362Z,997.72
2022-08-17T07:23:23.290Z,997.81
2022-08-17T07:28:23.209Z,997.84
2022-08-17T07:33:23.153Z,997.69
2022-08-17T07:38:24.732Z,997.78
2022-08-17T07:43:23.591Z,997.63
2022-08-17T07:48:22.982Z,997.77
2022-08-17T07:53:22.914Z,997.62
2022-08-17T07:58:22.856Z,997.70
2022-08-17T08:03:26.015Z,997.64
2022-08-17T08:08:22.754Z,997.59
2022-08-17T08:13:22.688Z,997.49
2022-08-17T08:18:53.312Z,997.53
2022-08-17T08:23:23.581Z,997.55
2022-08-17T08:28:22.556Z,997.50
2022-08-17T08:33:22.518Z,997.53
2022-08-17T08:38:22.404Z,997.46
2022-08-17T08:43:22.528Z,997.51
2022-08-17T08:48:46.266Z,997.54
2022-08-17T08:53:23.209Z,997.38
2022-08-17T08:58:32.007Z,997.42
2022-08-17T09:03:37.635Z,997.26
2022-08-17T09:08:23.035Z,997.25
2022-08-17T09:13:21.959Z,997.19
2022-08-17T09:19:00.481Z,997.21
2022-08-17T09:23:22.858Z,997.34
2022-08-17T09:28:21.800Z,997.22
2022-08-17T09:33:21.718Z,997.17
2022-08-17T09:38:21.666Z,997.20
2022-08-17T09:43:21.603Z,997.11
2022-08-17T09:48:21.753Z,997.13
2022-08-17T09:53:21.473Z,997.03
2022-08-17T09:58:21.427Z,997.09
2022-08-17T10:03:21.399Z,997.04
2022-08-17T10:08:21.569Z,997.06
2022-08-17T10:13:21.238Z,997.07
2022-08-17T10:18:21.200Z,997.00
2022-08-17T10:23:21.156Z,997.01
2022-08-17T10:28:24.676Z,997.07
2022-08-17T10:33:22.022Z,996.95
2022-08-17T10:38:21.543Z,996.97
2022-08-17T10:43:20.897Z,996.87
2022-08-17T10:48:20.820Z,996.86
2022-08-17T10:53:20.932Z,996.87
2022-08-17T10:58:20.689Z,996.82
2022-08-17T11:03:20.626Z,996.90
2022-08-17T11:08:20.675Z,996.78
2022-08-17T11:13:21.311Z,996.77
2022-08-17T11:18:20.479Z,996.69
2022-08-17T11:23:20.401Z,996.65
2022-08-17T11:28:20.334Z,996.56
2022-08-17T11:33:20.264Z,996.65
2022-08-17T11:38:20.206Z,996.62
2022-08-17T11:43:20.141Z,996.49
2022-08-17T11:48:29.218Z,996.47
2022-08-17T11:53:21.014Z,996.41
2022-08-17T11:58:20.143Z,996.37
2022-08-17T12:03:20.005Z,996.52
2022-08-17T12:08:19.812Z,996.42
2022-08-17T12:13:19.763Z,996.50
2022-08-17T12:18:19.737Z,996.27
2022-08-17T12:23:19.641Z,996.36
2022-08-17T12:28:20.332Z,996.23
2022-08-17T12:33:28.147Z,996.19
2022-08-17T12:38:32.420Z,996.12
2022-08-17T12:43:20.391Z,996.16
2022-08-17T12:48:19.320Z,996.07
2022-08-17T12:53:19.313Z,996.12
2022-08-17T12:58:19.218Z,996.13
2022-08-17T13:03:19.167Z,996.08
2022-08-17T13:08:19.115Z,996.06
2022-08-17T13:13:19.027Z,996.07
2022-08-17T13:18:18.970Z,996.06
2022-08-17T13:23:18.900Z,996.01
2022-08-17T13:28:18.820Z,996.05
2022-08-17T13:33:19.793Z,996.04
2022-08-17T13:38:19.746Z,995.98
2022-08-17T13:43:18.684Z,996.12
2022-08-17T13:48:18.593Z,996.12
2022-08-17T13:53:18.526Z,996.16
2022-08-17T13:58:18.477Z,996.20
2022-08-17T14:03:18.410Z,996.06
2022-08-17T14:08:18.349Z,996.00
2022-08-17T14:13:18.311Z,996.08
2022-08-17T14:18:18.212Z,995.98
2022-08-17T14:23:19.153Z,996.03
2022-08-17T14:28:18.116Z,996.03
2022-08-17T14:33:18.035Z,995.88
2022-08-17T14:38:17.996Z,995.82
2022-08-17T14:43:17.962Z,995.67
2022-08-17T14:48:17.852Z,995.64
2022-08-17T14:53:17.789Z,995.67
2022-08-17T14:58:17.742Z,995.71
2022-08-17T15:03:17.690Z,995.75
2022-08-17T15:08:17.598Z,995.81
2022-08-17T15:13:17.555Z,995.78
2022-08-17T15:18:17.489Z,995.86
2022-08-17T15:23:17.408Z,995.80
2022-08-17T15:28:17.573Z,995.74
2022-08-17T15:33:17.618Z,995.79
2022-08-17T15:38:17.262Z,995.71
2022-08-17T15:43:17.178Z,995.71
2022-08-17T15:48:17.093Z,995.71
2022-08-17T15:53:17.043Z,995.62
2022-08-17T15:58:16.982Z,995.62
2022-08-17T16:03:59.314Z,995.45
2022-08-17T16:08:21.110Z,995.32
2022-08-17T16:13:17.398Z,995.37
2022-08-17T16:18:16.923Z,995.29
2022-08-17T16:23:20.118Z,995.42
2022-08-17T16:28:16.610Z,995.45
2022-08-17T16:33:16.588Z,995.37
2022-08-17T16:38:16.482Z,995.40
2022-08-17T16:43:16.506Z,995.50
2022-08-17T16:48:16.360Z,995.59
2022-08-17T16:53:16.379Z,995.51
2022-08-17T16:58:16.207Z,995.42
2022-08-17T17:03:18.931Z,995.47
2022-08-17T17:08:16.110Z,995.48
2022-08-17T17:13:16.060Z,995.56
2022-08-17T17:18:15.953Z,995.59
2022-08-17T17:23:15.989Z,995.57
2022-08-17T17:28:15.835Z,995.67
2022-08-17T17:33:15.809Z,995.64
2022-08-17T17:38:15.728Z,995.80
2022-08-17T17:43:37.658Z,995.72
2022-08-17T17:48:16.577Z,995.82
2022-08-17T17:53:15.510Z,995.71
2022-08-17T17:58:15.432Z,995.91
2022-08-17T18:03:15.409Z,995.92
2022-08-17T18:08:15.340Z,995.85
2022-08-17T18:13:15.271Z,995.84
2022-08-17T18:18:15.255Z,995.96
2022-08-17T18:23:15.126Z,995.99
2022-08-17T18:28:15.148Z,995.98
2022-08-17T18:33:14.997Z,996.03
2022-08-17T18:38:19.910Z,996.01
2022-08-17T18:43:14.870Z,995.92
2022-08-17T18:48:14.790Z,995.95
2022-08-17T18:53:14.737Z,995.82
2022-08-17T18:58:14.711Z,995.93
2022-08-17T19:03:14.668Z,995.85
2022-08-17T19:08:14.545Z,996.03
2022-08-17T19:13:14.486Z,995.96
2022-08-17T19:18:15.879Z,995.99
2022-08-17T19:23:14.364Z,995.90
2022-08-17T19:28:21.889Z,995.94
2022-08-17T19:33:15.235Z,995.94
2022-08-17T19:38:14.147Z,996.02
2022-08-17T19:43:14.099Z,995.91
2022-08-17T19:48:14.010Z,996.04
2022-08-17T19:53:13.950Z,995.95
2022-08-17T19:58:18.080Z,996.05
2022-08-17T20:03:16.625Z,996.01
2022-08-17T20:08:13.762Z,995.96
2022-08-17T20:13:13.721Z,995.97
2022-08-17T20:18:13.654Z,995.81
2022-08-17T20:23:13.576Z,995.96
2022-08-17T20:28:13.516Z,995.88
2022-08-17T20:33:13.559Z,995.90
2022-08-17T20:38:13.480Z,995.93
2022-08-17T20:43:13.348Z,995.95
2022-08-17T20:48:36.356Z,996.03
2022-08-17T20:53:15.002Z,995.89
2022-08-17T20:58:13.110Z,995.82
2022-08-17T21:03:13.057Z,995.87
2022-08-17T21:08:13.080Z,995.95
2022-08-17T21:13:12.902Z,996.04
2022-08-17T21:18:12.859Z,996.13
2022-08-17T21:23:12.796Z,996.26
2022-08-17T21:28:12.765Z,996.26
2022-08-17T21:33:12.697Z,996.45
2022-08-17T21:38:12.596Z,996.48
2022-08-17T21:43:12.535Z,996.52
2022-08-17T21:48:12.457Z,996.53
2022-08-17T21:53:12.409Z,996.51
2022-08-17T21:58:15.106Z,996.53
2022-08-17T22:03:12.288Z,996.58
2022-08-17T22:08:16.379Z,996.64
2022-08-17T22:13:16.400Z,996.63
2022-08-17T22:18:13.095Z,996.53
2022-08-17T22:23:12.022Z,996.46
2022-08-17T22:28:11.933Z,996.48
2022-08-17T22:33:11.874Z,996.51
2022-08-17T22:38:11.804Z,996.44
2022-08-17T22:43:11.737Z,996.53
2022-08-17T22:48:11.917Z,996.60
2022-08-17T22:53:11.607Z,996.70
2022-08-17T22:58:11.549Z,996.76
2022-08-17T23:03:11.548Z,996.69
2022-08-17T23:08:11.411Z,996.69
2022-08-17T23:13:11.341Z,996.58
2022-08-17T23:18:11.273Z,996.59
2022-08-17T23:23:11.211Z,996.54
2022-08-17T23:28:11.143Z,996.55
2022-08-17T23:33:11.073Z,996.64
2022-08-17T23:38:11.013Z,996.62
2022-08-17T23:43:23.607Z,996.61
2022-08-17T23:48:11.884Z,996.51
2022-08-17T23:53:11.066Z,996.61
2022-08-17T23:58:10.747Z,996.60
